Time;durP1;ratioP1;P1;durP2;ratioP2;P2;SDS_P1;SDS_P2;PMS_P1;PMS_P2;Temp;Humidity;BMP_temperature;BMP_pressure;BME280_temperature;BME280_humidity;BME280_pressure;Samples;Min_cycle;Max_cycle;Signal;HPM_P1;HPM_P2
2024/01/23 00:01:35;;;;;;;2.67;1.23;;;;;;;;;;5131723;27;20047;-72
2024/01/23 00:04:02;;;;;;;2.67;1.20;;;;;;;;;;5113001;27;20047;-71
2024/01/23 00:06:29;;;;;;;3.45;1.23;;;;;;;;;;5131479;27;20047;-72
2024/01/23 00:08:57;;;;;;;3.92;1.40;;;;;;;;;;5130718;27;20069;-70
2024/01/23 00:11:23;;;;;;;3.10;1.27;;;;;;;;;;5130958;27;20047;-71
2024/01/23 00:13:50;;;;;;;2.28;1.10;;;;;;;;;;5131242;27;20039;-72
2024/01/23 00:16:17;;;;;;;3.10;1.00;;;;;;;;;;5131480;27;20059;-71
2024/01/23 00:18:43;;;;;;;3.97;1.20;;;;;;;;;;5131030;27;20047;-71
2024/01/23 00:21:11;;;;;;;3.00;1.40;;;;;;;;;;5131509;27;20043;-71
2024/01/23 00:23:38;;;;;;;1.85;1.00;;;;;;;;;;5131276;27;20053;-70
2024/01/23 00:26:04;;;;;;;2.53;0.95;;;;;;;;;;5130166;27;20527;-70
2024/01/23 00:28:31;;;;;;;2.00;0.88;;;;;;;;;;5131370;27;20047;-70
2024/01/23 00:30:58;;;;;;;1.80;0.85;;;;;;;;;;5117795;27;20492;-71
2024/01/23 00:33:24;;;;;;;2.30;0.93;;;;;;;;;;5110247;28;20051;-71
2024/01/23 00:35:51;;;;;;;3.22;0.82;;;;;;;;;;5110121;28;20051;-72
2024/01/23 00:38:18;;;;;;;2.03;0.70;;;;;;;;;;5110349;28;20051;-73
2024/01/23 00:40:45;;;;;;;2.13;0.85;;;;;;;;;;5109702;28;20044;-72
2024/01/23 00:43:12;;;;;;;2.72;0.90;;;;;;;;;;5110042;28;20043;-71
2024/01/23 00:45:39;;;;;;;1.65;0.73;;;;;;;;;;5108352;28;20054;-71
2024/01/23 00:48:06;;;;;;;1.17;0.73;;;;;;;;;;5109815;28;20056;-71
2024/01/23 00:50:33;;;;;;;1.35;0.70;;;;;;;;;;5110116;28;20062;-72
2024/01/23 00:53:00;;;;;;;1.80;0.65;;;;;;;;;;5126058;27;20055;-71
2024/01/23 00:55:27;;;;;;;2.60;1.08;;;;;;;;;;5130302;27;20069;-71
2024/01/23 00:57:54;;;;;;;2.75;1.05;;;;;;;;;;5112035;27;20120;-72
2024/01/23 01:00:20;;;;;;;2.45;0.93;;;;;;;;;;5130450;27;20047;-71
2024/01/23 01:02:47;;;;;;;2.30;1.00;;;;;;;;;;5130489;27;20043;-70
2024/01/23 01:05:14;;;;;;;2.78;1.00;;;;;;;;;;5129881;27;20043;-71
2024/01/23 01:07:41;;;;;;;2.88;1.10;;;;;;;;;;5128980;27;20413;-72
2024/01/23 01:10:08;;;;;;;2.22;1.10;;;;;;;;;;5129665;27;20055;-71
2024/01/23 01:12:35;;;;;;;2.28;1.00;;;;;;;;;;5130042;27;20043;-72
2024/01/23 01:15:02;;;;;;;1.58;0.80;;;;;;;;;;5129684;27;20070;-71
2024/01/23 01:17:29;;;;;;;2.83;0.80;;;;;;;;;;5130059;27;20769;-72
2024/01/23 01:19:56;;;;;;;2.22;1.00;;;;;;;;;;5130155;27;20043;-70
2024/01/23 01:22:23;;;;;;;2.72;0.90;;;;;;;;;;5129623;27;20039;-71
2024/01/23 01:24:50;;;;;;;2.17;0.93;;;;;;;;;;5129179;27;20135;-71
2024/01/23 01:27:16;;;;;;;3.22;1.00;;;;;;;;;;5129750;27;20057;-70
2024/01/23 01:29:43;;;;;;;2.85;0.80;;;;;;;;;;5129912;27;20047;-71
2024/01/23 01:32:10;;;;;;;2.70;0.70;;;;;;;;;;5129971;27;20495;-70
2024/01/23 01:34:37;;;;;;;3.25;0.80;;;;;;;;;;5129940;27;20039;-71
2024/01/23 01:37:04;;;;;;;2.42;0.75;;;;;;;;;;5129504;27;20043;-70
2024/01/23 01:39:30;;;;;;;2.97;0.70;;;;;;;;;;5129543;27;20051;-70
2024/01/23 01:41:57;;;;;;;2.40;0.77;;;;;;;;;;5129418;27;20047;-70
2024/01/23 01:44:24;;;;;;;0.95;0.55;;;;;;;;;;5129847;27;20479;-70
2024/01/23 01:46:51;;;;;;;2.42;0.55;;;;;;;;;;5129317;28;20043;-71
2024/01/23 01:49:18;;;;;;;3.38;0.68;;;;;;;;;;5129676;27;20047;-69
2024/01/23 01:51:47;;;;;;;3.47;0.70;;;;;;;;;;5131119;28;20126;-69
2024/01/23 01:54:16;;;;;;;4.55;0.88;;;;;;;;;;5118873;28;20079;-71
2024/01/23 01:56:43;;;;;;;2.03;0.75;;;;;;;;;;5108627;28;20145;-71
2024/01/23 01:59:10;;;;;;;2.85;0.88;;;;;;;;;;5108803;28;20044;-71
2024/01/23 02:01:37;;;;;;;1.30;0.60;;;;;;;;;;5109039;28;20046;-72
2024/01/23 02:04:04;;;;;;;2.00;0.80;;;;;;;;;;5109060;28;20043;-71
2024/01/23 02:06:32;;;;;;;1.27;0.55;;;;;;;;;;5108767;28;20043;-71
2024/01/23 02:08:59;;;;;;;3.15;0.70;;;;;;;;;;5127389;28;20051;-71
2024/01/23 02:11:26;;;;;;;2.17;0.63;;;;;;;;;;5129275;28;20051;-72
2024/01/23 02:13:52;;;;;;;3.45;0.70;;;;;;;;;;5128924;28;20039;-70
2024/01/23 02:16:20;;;;;;;3.22;0.70;;;;;;;;;;5129323;28;20122;-71
2024/01/23 02:18:47;;;;;;;2.38;0.73;;;;;;;;;;5130889;27;20040;-71
2024/01/23 02:21:15;;;;;;;4.32;0.65;;;;;;;;;;5133366;27;20515;-69
2024/01/23 02:23:42;;;;;;;2.50;0.47;;;;;;;;;;5133580;27;20062;-71
2024/01/23 02:26:09;;;;;;;3.75;0.60;;;;;;;;;;5132638;27;20043;-72
2024/01/23 02:28:35;;;;;;;2.75;0.80;;;;;;;;;;5133146;27;20039;-72
2024/01/23 02:31:02;;;;;;;2.28;0.50;;;;;;;;;;5119656;27;20055;-71
2024/01/23 02:33:29;;;;;;;1.80;0.73;;;;;;;;;;5112516;28;20414;-71
2024/01/23 02:35:56;;;;;;;3.05;0.80;;;;;;;;;;5111983;28;20048;-70
2024/01/23 02:38:22;;;;;;;3.38;0.80;;;;;;;;;;5112504;28;20122;-71
2024/01/23 02:40:52;;;;;;;2.30;0.80;;;;;;;;;;5113249;27;20054;-70
2024/01/23 02:43:19;;;;;;;1.75;0.70;;;;;;;;;;5133128;27;20050;-71
2024/01/23 02:45:48;;;;;;;1.38;0.50;;;;;;;;;;5132871;27;20039;-70
2024/01/23 02:48:14;;;;;;;2.05;0.80;;;;;;;;;;5132929;27;20043;-71
2024/01/23 02:50:41;;;;;;;4.13;1.00;;;;;;;;;;5133022;27;20039;-70
2024/01/23 02:53:08;;;;;;;2.45;0.70;;;;;;;;;;5131885;27;20035;-71
2024/01/23 02:55:34;;;;;;;2.10;0.73;;;;;;;;;;5111564;28;20055;-70
2024/01/23 02:58:01;;;;;;;1.65;0.80;;;;;;;;;;5112365;28;20046;-71
2024/01/23 03:00:28;;;;;;;1.35;0.55;;;;;;;;;;5112238;28;20047;-71
2024/01/23 03:02:55;;;;;;;2.13;0.63;;;;;;;;;;5111901;28;20089;-70
2024/01/23 03:05:22;;;;;;;1.90;0.70;;;;;;;;;;5111682;28;20050;-70
2024/01/23 03:07:50;;;;;;;1.75;0.60;;;;;;;;;;5120555;27;20690;-70
2024/01/23 03:10:17;;;;;;;1.60;0.70;;;;;;;;;;5131772;27;20086;-71
2024/01/23 03:12:44;;;;;;;2.17;0.75;;;;;;;;;;5132267;27;20047;-71
2024/01/23 03:15:11;;;;;;;2.05;0.65;;;;;;;;;;5132290;27;20422;-72
2024/01/23 03:17:37;;;;;;;2.08;0.57;;;;;;;;;;5114146;27;20051;-70
2024/01/23 03:20:05;;;;;;;1.52;0.70;;;;;;;;;;5132501;27;20047;-71
2024/01/23 03:22:32;;;;;;;2.47;0.70;;;;;;;;;;5132456;27;20054;-70
2024/01/23 03:24:59;;;;;;;2.10;0.82;;;;;;;;;;5131933;27;20039;-72
2024/01/23 03:27:26;;;;;;;2.20;0.60;;;;;;;;;;5131877;27;20551;-71
2024/01/23 03:29:53;;;;;;;1.15;0.40;;;;;;;;;;5127410;27;20139;-71
2024/01/23 03:32:20;;;;;;;1.67;0.63;;;;;;;;;;5093392;28;20393;-71
2024/01/23 03:34:46;;;;;;;2.15;0.73;;;;;;;;;;5111184;28;20047;-71
2024/01/23 03:37:15;;;;;;;2.70;0.95;;;;;;;;;;5111098;28;20533;-71
2024/01/23 03:39:42;;;;;;;2.65;0.70;;;;;;;;;;5111268;28;20048;-72
2024/01/23 03:42:08;;;;;;;1.75;0.60;;;;;;;;;;5123851;27;20049;-71
2024/01/23 03:44:36;;;;;;;2.72;0.80;;;;;;;;;;5132052;27;20082;-70
2024/01/23 03:47:03;;;;;;;1.63;0.70;;;;;;;;;;5113522;27;20047;-70
2024/01/23 03:49:29;;;;;;;1.05;0.57;;;;;;;;;;5131717;27;20051;-72
2024/01/23 03:51:56;;;;;;;2.08;0.70;;;;;;;;;;5131761;27;20048;-71
2024/01/23 03:54:23;;;;;;;1.95;1.00;;;;;;;;;;5120307;27;20100;-71
2024/01/23 03:56:50;;;;;;;2.03;0.60;;;;;;;;;;5111135;28;20887;-72
2024/01/23 03:59:16;;;;;;;2.80;0.80;;;;;;;;;;5110750;28;20537;-73
2024/01/23 04:01:43;;;;;;;1.63;0.80;;;;;;;;;;5111074;28;20055;-71
2024/01/23 04:04:10;;;;;;;3.08;0.90;;;;;;;;;;5111071;28;20051;-70
2024/01/23 04:06:36;;;;;;;2.13;0.57;;;;;;;;;;5110389;28;20640;-71
2024/01/23 04:09:03;;;;;;;2.10;0.60;;;;;;;;;;5129669;27;20576;-72
2024/01/23 04:11:31;;;;;;;3.88;1.08;;;;;;;;;;5131130;27;20055;-71
2024/01/23 04:13:58;;;;;;;3.70;0.82;;;;;;;;;;5131024;27;20050;-71
2024/01/23 04:16:28;;;;;;;2.30;0.80;;;;;;;;;;5130806;27;20536;-70
2024/01/23 04:18:54;;;;;;;4.55;1.00;;;;;;;;;;5130826;27;20051;-71
2024/01/23 04:21:23;;;;;;;3.72;1.00;;;;;;;;;;5130869;27;20061;-70
2024/01/23 04:23:50;;;;;;;3.53;0.75;;;;;;;;;;5131058;27;20588;-70
2024/01/23 04:26:18;;;;;;;2.15;0.70;;;;;;;;;;5130995;27;20055;-71
2024/01/23 04:28:49;;;;;;;2.83;0.70;;;;;;;;;;5131107;27;20122;-71
2024/01/23 04:31:16;;;;;;;2.30;0.73;;;;;;;;;;5115769;27;20047;-70
2024/01/23 04:33:46;;;;;;;2.72;0.70;;;;;;;;;;5110250;28;20449;-70
2024/01/23 04:36:14;;;;;;;3.33;0.73;;;;;;;;;;5110114;28;20043;-70
2024/01/23 04:38:41;;;;;;;1.50;0.80;;;;;;;;;;5109974;28;20131;-71
2024/01/23 04:41:09;;;;;;;1.48;0.70;;;;;;;;;;5113695;27;20046;-70
2024/01/23 04:43:36;;;;;;;1.75;0.82;;;;;;;;;;5130962;27;20050;-70
2024/01/23 04:46:03;;;;;;;1.98;0.90;;;;;;;;;;5130847;27;20039;-69
2024/01/23 04:48:32;;;;;;;2.75;0.70;;;;;;;;;;5130716;27;20042;-70
2024/01/23 04:50:59;;;;;;;1.15;0.55;;;;;;;;;;5130536;27;20152;-70
2024/01/23 04:53:30;;;;;;;2.47;0.60;;;;;;;;;;5127035;27;20123;-72
2024/01/23 04:55:57;;;;;;;3.17;0.60;;;;;;;;;;5109628;28;20062;-72
2024/01/23 04:58:23;;;;;;;1.92;0.60;;;;;;;;;;5109811;28;20039;-71
2024/01/23 05:00:50;;;;;;;3.15;0.70;;;;;;;;;;5109554;28;20415;-71
2024/01/23 05:03:17;;;;;;;1.65;0.77;;;;;;;;;;5110042;28;20086;-71
2024/01/23 05:05:44;;;;;;;1.73;0.70;;;;;;;;;;5109943;28;20074;-71
2024/01/23 05:08:11;;;;;;;2.70;0.70;;;;;;;;;;5121582;27;20047;-70
2024/01/23 05:10:38;;;;;;;2.65;0.70;;;;;;;;;;5129352;27;20047;-72
2024/01/23 05:13:05;;;;;;;3.08;0.80;;;;;;;;;;5130266;27;20047;-72
2024/01/23 05:15:31;;;;;;;3.17;0.70;;;;;;;;;;5129977;27;20043;-71
2024/01/23 05:17:58;;;;;;;1.98;0.60;;;;;;;;;;5129976;27;20086;-70
2024/01/23 05:20:25;;;;;;;1.08;0.50;;;;;;;;;;5129765;27;20106;-70
2024/01/23 05:22:52;;;;;;;1.73;0.80;;;;;;;;;;5111799;27;20047;-71
2024/01/23 05:25:19;;;;;;;3.08;0.82;;;;;;;;;;5130738;27;20119;-71
2024/01/23 05:27:46;;;;;;;1.13;0.57;;;;;;;;;;5129795;27;20051;-71
2024/01/23 05:30:13;;;;;;;1.83;0.85;;;;;;;;;;5123183;27;20043;-70
2024/01/23 05:32:40;;;;;;;2.33;0.80;;;;;;;;;;5109440;28;20048;-71
2024/01/23 05:35:07;;;;;;;2.10;0.88;;;;;;;;;;5109494;28;20039;-71
2024/01/23 05:37:34;;;;;;;1.55;0.77;;;;;;;;;;5108866;28;20043;-70
2024/01/23 05:40:02;;;;;;;2.00;0.82;;;;;;;;;;5090514;28;20587;-71
2024/01/23 05:42:29;;;;;;;1.88;0.77;;;;;;;;;;5124648;27;20146;-70
2024/01/23 05:44:56;;;;;;;2.40;0.93;;;;;;;;;;5129611;28;20086;-71
2024/01/23 05:47:23;;;;;;;1.60;0.80;;;;;;;;;;5129444;28;20517;-71
2024/01/23 05:49:50;;;;;;;1.90;0.80;;;;;;;;;;5129516;27;20043;-70
2024/01/23 05:52:17;;;;;;;1.58;0.70;;;;;;;;;;5129613;28;20074;-70
2024/01/23 05:54:44;;;;;;;2.30;0.73;;;;;;;;;;5117851;27;20043;-71
2024/01/23 05:57:12;;;;;;;1.60;0.70;;;;;;;;;;5113024;28;20046;-71
2024/01/23 05:59:40;;;;;;;2.53;0.77;;;;;;;;;;5113231;28;20491;-71
2024/01/23 06:02:07;;;;;;;1.90;0.70;;;;;;;;;;5113042;28;20131;-72
2024/01/23 06:04:34;;;;;;;2.17;0.80;;;;;;;;;;5112875;28;20039;-72
2024/01/23 06:07:02;;;;;;;1.42;0.60;;;;;;;;;;5115040;27;20483;-72
2024/01/23 06:09:29;;;;;;;2.53;0.77;;;;;;;;;;5133253;27;20047;-70
2024/01/23 06:11:56;;;;;;;1.70;0.70;;;;;;;;;;5133533;27;20130;-70
2024/01/23 06:14:23;;;;;;;1.98;0.70;;;;;;;;;;5133481;27;20101;-70
2024/01/23 06:16:50;;;;;;;2.13;1.20;;;;;;;;;;5133344;27;20059;-71
2024/01/23 06:19:18;;;;;;;3.00;1.02;;;;;;;;;;5133539;27;20051;-70
2024/01/23 06:21:45;;;;;;;2.63;1.10;;;;;;;;;;5133434;27;20055;-71
2024/01/23 06:24:12;;;;;;;3.80;1.00;;;;;;;;;;5116246;27;20679;-70
2024/01/23 06:26:38;;;;;;;3.42;0.90;;;;;;;;;;5133284;27;20047;-70
2024/01/23 06:29:05;;;;;;;2.53;1.00;;;;;;;;;;5133224;27;20055;-70
2024/01/23 06:31:32;;;;;;;3.15;0.98;;;;;;;;;;5115265;27;20206;-71
2024/01/23 06:34:00;;;;;;;3.25;0.90;;;;;;;;;;5113770;28;20144;-71
2024/01/23 06:36:27;;;;;;;2.92;1.00;;;;;;;;;;5112667;28;20046;-70
2024/01/23 06:38:54;;;;;;;2.30;0.90;;;;;;;;;;5111493;28;20156;-70
2024/01/23 06:41:21;;;;;;;3.38;1.00;;;;;;;;;;5117911;27;20450;-71
2024/01/23 06:43:48;;;;;;;2.38;1.02;;;;;;;;;;5133146;27;20082;-71
2024/01/23 06:46:14;;;;;;;3.35;0.90;;;;;;;;;;5132867;27;20407;-70
2024/01/23 06:48:41;;;;;;;2.35;0.90;;;;;;;;;;5132449;27;20977;-71
2024/01/23 06:51:08;;;;;;;3.50;0.88;;;;;;;;;;5132706;27;20047;-70
2024/01/23 06:53:35;;;;;;;3.28;1.10;;;;;;;;;;5128114;27;20077;-70
2024/01/23 06:56:02;;;;;;;3.05;1.00;;;;;;;;;;5111898;28;20126;-71
2024/01/23 06:58:28;;;;;;;3.25;1.13;;;;;;;;;;5111941;28;20048;-71
2024/01/23 07:00:55;;;;;;;3.70;1.25;;;;;;;;;;5111988;28;20052;-69
2024/01/23 07:03:22;;;;;;;3.42;1.10;;;;;;;;;;5111730;28;20106;-71
2024/01/23 07:05:49;;;;;;;3.47;1.08;;;;;;;;;;5111673;28;20097;-70
2024/01/23 07:08:15;;;;;;;4.57;1.25;;;;;;;;;;5124161;27;20503;-71
2024/01/23 07:10:42;;;;;;;4.65;1.25;;;;;;;;;;5131641;27;20051;-71
2024/01/23 07:13:09;;;;;;;2.60;1.08;;;;;;;;;;5131985;27;20047;-71
2024/01/23 07:15:38;;;;;;;3.92;1.30;;;;;;;;;;5132188;27;20134;-71
2024/01/23 07:18:05;;;;;;;4.28;1.10;;;;;;;;;;5131870;27;20681;-71
2024/01/23 07:20:31;;;;;;;5.63;1.35;;;;;;;;;;5132354;27;20084;-71
2024/01/23 07:22:58;;;;;;;3.08;1.20;;;;;;;;;;5132007;27;20043;-71
2024/01/23 07:25:25;;;;;;;4.72;1.48;;;;;;;;;;5131977;27;20043;-70
2024/01/23 07:27:52;;;;;;;2.90;1.10;;;;;;;;;;5131593;27;20051;-70
2024/01/23 07:30:19;;;;;;;3.03;1.20;;;;;;;;;;5124934;27;20047;-70
2024/01/23 07:32:47;;;;;;;5.75;1.35;;;;;;;;;;5111127;28;20524;-70
2024/01/23 07:35:14;;;;;;;4.25;1.50;;;;;;;;;;5111189;28;20393;-70
2024/01/23 07:37:40;;;;;;;3.70;1.50;;;;;;;;;;5111008;28;20566;-70
2024/01/23 07:40:07;;;;;;;3.97;1.20;;;;;;;;;;5111078;28;20122;-70
2024/01/23 07:42:34;;;;;;;4.90;1.30;;;;;;;;;;5127631;27;20044;-70
2024/01/23 07:45:01;;;;;;;4.63;1.40;;;;;;;;;;5131816;27;20058;-70
2024/01/23 07:47:27;;;;;;;3.30;1.30;;;;;;;;;;5131818;27;20047;-70
2024/01/23 07:49:54;;;;;;;4.45;1.30;;;;;;;;;;5131518;27;20058;-70
2024/01/23 07:52:22;;;;;;;2.45;1.10;;;;;;;;;;5131319;27;20589;-71
2024/01/23 07:54:50;;;;;;;3.08;1.10;;;;;;;;;;5115874;27;20371;-69
2024/01/23 07:57:17;;;;;;;5.85;1.48;;;;;;;;;;5110897;28;20492;-73
2024/01/23 07:59:44;;;;;;;3.03;1.25;;;;;;;;;;5110821;28;20096;-69
2024/01/23 08:02:10;;;;;;;5.28;1.38;;;;;;;;;;5110844;28;20495;-71
2024/01/23 08:04:37;;;;;;;4.60;1.55;;;;;;;;;;5110989;28;20047;-71
2024/01/23 08:07:06;;;;;;;3.30;1.25;;;;;;;;;;5113839;27;20085;-73
2024/01/23 08:09:33;;;;;;;2.88;1.65;;;;;;;;;;5130412;27;20438;-73
2024/01/23 08:12:01;;;;;;;4.60;1.58;;;;;;;;;;5130863;27;20047;-73
2024/01/23 08:14:28;;;;;;;4.35;1.40;;;;;;;;;;5131110;27;20092;-74
2024/01/23 08:16:55;;;;;;;4.28;1.40;;;;;;;;;;5130607;27;20043;-75
2024/01/23 08:19:26;;;;;;;3.85;1.55;;;;;;;;;;5131017;27;20126;-74
2024/01/23 08:21:52;;;;;;;3.28;1.30;;;;;;;;;;5131976;27;20047;-72
2024/01/23 08:24:19;;;;;;;5.43;2.00;;;;;;;;;;5134125;27;20081;-72
2024/01/23 08:26:47;;;;;;;3.70;1.23;;;;;;;;;;5142336;27;20158;-71
2024/01/23 08:29:14;;;;;;;3.05;1.30;;;;;;;;;;5131246;27;20464;-72
2024/01/23 08:31:41;;;;;;;2.58;1.10;;;;;;;;;;5111521;27;20043;-72
2024/01/23 08:34:08;;;;;;;3.72;1.00;;;;;;;;;;5110055;28;20044;-72
2024/01/23 08:36:35;;;;;;;4.97;1.20;;;;;;;;;;5111163;28;20046;-71
2024/01/23 08:39:02;;;;;;;2.70;1.20;;;;;;;;;;5109138;28;20070;-72
2024/01/23 08:41:29;;;;;;;3.80;1.30;;;;;;;;;;5117030;27;20134;-72
2024/01/23 08:43:56;;;;;;;4.10;1.30;;;;;;;;;;5130472;27;20039;-72
2024/01/23 08:46:23;;;;;;;2.45;1.13;;;;;;;;;;5132652;27;20510;-70
2024/01/23 08:48:50;;;;;;;5.13;1.27;;;;;;;;;;5111502;27;20047;-72
2024/01/23 08:51:17;;;;;;;3.63;1.20;;;;;;;;;;5130456;27;20066;-74
2024/01/23 08:53:45;;;;;;;7.18;1.50;;;;;;;;;;5123933;27;20040;-73
2024/01/23 08:56:12;;;;;;;5.22;1.30;;;;;;;;;;5110006;28;20039;-74
2024/01/23 08:58:39;;;;;;;4.85;1.38;;;;;;;;;;5108070;27;20039;-73
2024/01/23 09:01:05;;;;;;;3.75;1.10;;;;;;;;;;5120047;27;20039;-72
2024/01/23 09:03:33;;;;;;;2.78;1.00;;;;;;;;;;5116822;27;20070;-72
2024/01/23 09:06:00;;;;;;;2.50;0.90;;;;;;;;;;5134545;27;20100;-72
2024/01/23 09:08:27;;;;;;;2.33;1.00;;;;;;;;;;5130585;27;20043;-72
2024/01/23 09:10:53;;;;;;;2.92;1.00;;;;;;;;;;5133442;27;20444;-72
2024/01/23 09:13:20;;;;;;;3.20;1.15;;;;;;;;;;5135778;27;20050;-72
2024/01/23 09:15:47;;;;;;;2.28;1.20;;;;;;;;;;5129727;27;20634;-73
2024/01/23 09:18:14;;;;;;;3.45;1.10;;;;;;;;;;5111260;28;20092;-72
2024/01/23 09:20:41;;;;;;;6.45;1.40;;;;;;;;;;5109376;28;20126;-73
2024/01/23 09:23:07;;;;;;;4.80;1.40;;;;;;;;;;5091146;28;20044;-73
2024/01/23 09:25:34;;;;;;;3.28;1.20;;;;;;;;;;5110326;28;20499;-74
2024/01/23 09:28:01;;;;;;;3.05;1.20;;;;;;;;;;5108342;28;20052;-72
2024/01/23 09:30:28;;;;;;;2.88;1.27;;;;;;;;;;5117126;27;20540;-73
2024/01/23 09:32:57;;;;;;;3.97;1.30;;;;;;;;;;5126804;27;20905;-73
2024/01/23 09:35:25;;;;;;;4.55;1.67;;;;;;;;;;5116213;28;20292;-72
2024/01/23 09:37:51;;;;;;;4.93;1.50;;;;;;;;;;5110760;28;20525;-72
2024/01/23 09:40:18;;;;;;;2.58;1.27;;;;;;;;;;5114451;28;20047;-73
2024/01/23 09:42:46;;;;;;;5.35;1.90;;;;;;;;;;5135069;27;20118;-73
2024/01/23 09:45:18;;;;;;;7.35;1.77;;;;;;;;;;5129859;28;20108;-72
2024/01/23 09:47:50;;;;;;;4.88;2.20;;;;;;;;;;5138918;27;20043;-70
2024/01/23 09:50:18;;;;;;;4.60;1.70;;;;;;;;;;5133881;28;20047;-75
2024/01/23 09:52:46;;;;;;;5.55;1.92;;;;;;;;;;5132811;28;20046;-73
2024/01/23 09:55:13;;;;;;;6.00;1.90;;;;;;;;;;5118685;28;20048;-72
2024/01/23 09:57:43;;;;;;;8.77;3.45;;;;;;;;;;5119437;28;20040;-73
2024/01/23 10:00:11;;;;;;;5.40;2.58;;;;;;;;;;5121263;27;20039;-72
2024/01/23 10:02:43;;;;;;;4.57;2.25;;;;;;;;;;5090723;28;20510;-73
2024/01/23 10:05:12;;;;;;;3.40;1.90;;;;;;;;;;5116664;28;20146;-73
2024/01/23 10:07:40;;;;;;;6.15;2.33;;;;;;;;;;5091158;28;20067;-71
2024/01/23 10:10:16;;;;;;;5.95;2.78;;;;;;;;;;5107855;28;20060;-71
2024/01/23 10:12:45;;;;;;;5.40;2.53;;;;;;;;;;5108715;28;20043;-71
2024/01/23 10:15:15;;;;;;;3.40;2.10;;;;;;;;;;5108467;28;20047;-73
2024/01/23 10:17:44;;;;;;;4.73;2.20;;;;;;;;;;5108884;28;20141;-73
2024/01/23 10:20:11;;;;;;;6.43;3.10;;;;;;;;;;5108651;28;20047;-73
2024/01/23 10:22:38;;;;;;;7.80;3.17;;;;;;;;;;5108818;28;20055;-73
2024/01/23 10:25:08;;;;;;;3.58;2.40;;;;;;;;;;5108433;28;20039;-71
2024/01/23 10:27:35;;;;;;;5.70;3.00;;;;;;;;;;5108807;28;20128;-75
2024/01/23 10:30:03;;;;;;;7.88;2.83;;;;;;;;;;5108206;28;20101;-73
2024/01/23 10:32:30;;;;;;;7.18;2.63;;;;;;;;;;5108232;28;20047;-73
2024/01/23 10:34:57;;;;;;;9.25;3.33;;;;;;;;;;5109783;28;20044;-70
2024/01/23 10:37:24;;;;;;;6.22;2.47;;;;;;;;;;5110351;28;20055;-71
2024/01/23 10:39:51;;;;;;;5.15;2.17;;;;;;;;;;5109300;28;20062;-75
2024/01/23 10:42:19;;;;;;;6.55;3.00;;;;;;;;;;5114905;28;20533;-71
2024/01/23 10:44:49;;;;;;;7.78;2.78;;;;;;;;;;5125516;27;20061;-75
2024/01/23 10:47:16;;;;;;;5.30;2.25;;;;;;;;;;5137341;27;20039;-74
2024/01/23 10:49:45;;;;;;;5.68;2.40;;;;;;;;;;5142289;27;20071;-75
2024/01/23 10:52:17;;;;;;;4.38;1.90;;;;;;;;;;5133315;27;20507;-71
2024/01/23 10:54:49;;;;;;;7.00;1.95;;;;;;;;;;5115009;28;20063;-71
2024/01/23 10:57:22;;;;;;;7.38;2.28;;;;;;;;;;5118701;28;20056;-73
2024/01/23 10:59:50;;;;;;;7.82;2.40;;;;;;;;;;5122028;28;20043;-77
2024/01/23 11:02:28;;;;;;;4.93;1.80;;;;;;;;;;5123672;28;20126;-70
2024/01/23 11:04:55;;;;;;;8.55;3.03;;;;;;;;;;5123566;28;20051;-71
2024/01/23 11:07:58;;;;;;;4.40;2.10;;;;;;;;;;5123164;28;20051;-73
2024/01/23 11:10:48;;;;;;;6.75;2.17;;;;;;;;;;5116786;27;20107;-73
2024/01/23 11:13:38;;;;;;;7.63;2.42;;;;;;;;;;5111636;27;20079;-71
2024/01/23 11:16:06;;;;;;;5.70;2.10;;;;;;;;;;5132696;27;20082;-73
2024/01/23 11:18:34;;;;;;;3.80;1.40;;;;;;;;;;5127647;27;20624;-73
2024/01/23 11:21:08;;;;;;;6.28;2.08;;;;;;;;;;5100439;28;20039;-77
2024/01/23 11:23:44;;;;;;;6.07;1.92;;;;;;;;;;5117831;28;20040;-72
2024/01/23 11:26:19;;;;;;;4.70;1.92;;;;;;;;;;5097667;28;20097;-75
2024/01/23 11:28:54;;;;;;;5.38;1.65;;;;;;;;;;5139412;27;20050;-76
2024/01/23 11:31:23;;;;;;;3.47;1.50;;;;;;;;;;5132040;27;20051;-76
2024/01/23 11:33:51;;;;;;;5.70;2.00;;;;;;;;;;5131713;27;20404;-76
2024/01/23 11:36:26;;;;;;;4.32;1.73;;;;;;;;;;5127145;27;20047;-75
2024/01/23 11:39:00;;;;;;;4.00;1.77;;;;;;;;;;5119383;27;20420;-76
2024/01/23 11:41:28;;;;;;;4.25;1.80;;;;;;;;;;5131806;27;20047;-75
2024/01/23 11:44:04;;;;;;;6.32;1.95;;;;;;;;;;5119370;28;20155;-76
2024/01/23 11:46:34;;;;;;;5.82;2.20;;;;;;;;;;5141954;27;20050;-76
2024/01/23 11:49:02;;;;;;;3.40;1.70;;;;;;;;;;5135991;27;20459;-74
2024/01/23 11:51:29;;;;;;;5.05;1.65;;;;;;;;;;5129994;27;20495;-78
2024/01/23 11:53:58;;;;;;;4.15;1.75;;;;;;;;;;5130753;27;20047;-76
2024/01/23 11:56:28;;;;;;;5.07;1.80;;;;;;;;;;5112999;27;20096;-77
2024/01/23 11:58:58;;;;;;;4.50;1.90;;;;;;;;;;5131470;27;20059;-77
2024/01/23 12:01:30;;;;;;;4.22;1.65;;;;;;;;;;5112487;27;20046;-76
2024/01/23 12:03:57;;;;;;;5.97;1.95;;;;;;;;;;5131363;27;20044;-76
2024/01/23 12:06:25;;;;;;;4.50;1.80;;;;;;;;;;5112994;27;20046;-77
2024/01/23 12:08:55;;;;;;;4.80;1.85;;;;;;;;;;5130900;27;20423;-80
2024/01/23 12:11:22;;;;;;;4.70;1.80;;;;;;;;;;5117428;27;20524;-80
2024/01/23 12:13:50;;;;;;;4.07;1.60;;;;;;;;;;5110178;28;20410;-80
2024/01/23 12:16:18;;;;;;;8.35;2.55;;;;;;;;;;5092268;28;20055;-75
2024/01/23 12:18:56;;;;;;;7.03;2.45;;;;;;;;;;5122390;27;20624;-80
2024/01/23 12:21:23;;;;;;;5.35;2.03;;;;;;;;;;5131086;27;20047;-76
2024/01/23 12:23:51;;;;;;;4.18;2.05;;;;;;;;;;5130307;27;20050;-77
2024/01/23 12:26:38;;;;;;;6.00;1.90;;;;;;;;;;5131198;27;20039;-79
2024/01/23 12:29:05;;;;;;;6.85;2.30;;;;;;;;;;5130792;27;20044;-81
2024/01/23 12:31:32;;;;;;;3.30;1.85;;;;;;;;;;5130644;27;20043;-76
2024/01/23 12:33:58;;;;;;;3.90;1.52;;;;;;;;;;5128907;27;20051;-76
2024/01/23 12:36:28;;;;;;;3.47;1.52;;;;;;;;;;5131675;27;20123;-78
2024/01/23 12:38:55;;;;;;;6.30;1.98;;;;;;;;;;5128799;27;20043;-75
2024/01/23 12:41:24;;;;;;;3.58;1.52;;;;;;;;;;5129994;27;20047;-76
2024/01/23 12:43:51;;;;;;;6.28;1.90;;;;;;;;;;5130329;27;20046;-75
2024/01/23 12:46:17;;;;;;;5.88;2.00;;;;;;;;;;5112093;27;20047;-79
2024/01/23 12:48:44;;;;;;;3.55;1.63;;;;;;;;;;5129998;27;20135;-76
2024/01/23 12:51:16;;;;;;;4.30;1.83;;;;;;;;;;5129715;27;20126;-78
2024/01/23 12:53:43;;;;;;;4.47;1.60;;;;;;;;;;5130480;27;20039;-82
2024/01/23 12:56:10;;;;;;;16.40;5.75;;;;;;;;;;5130298;27;20184;-81
2024/01/23 12:58:38;;;;;;;13.60;4.70;;;;;;;;;;5111534;27;20071;-78
2024/01/23 13:01:04;;;;;;;9.73;3.45;;;;;;;;;;5130130;27;20043;-80
2024/01/23 13:03:32;;;;;;;7.30;2.70;;;;;;;;;;5111825;27;20444;-77
2024/01/23 13:05:59;;;;;;;6.72;2.10;;;;;;;;;;5130308;27;20073;-80
2024/01/23 13:08:26;;;;;;;5.38;1.88;;;;;;;;;;5129911;27;20051;-75
2024/01/23 13:10:55;;;;;;;7.78;2.40;;;;;;;;;;5129051;27;20099;-76
2024/01/23 13:13:22;;;;;;;9.20;2.35;;;;;;;;;;5112324;27;20055;-76
2024/01/23 13:15:49;;;;;;;8.10;2.35;;;;;;;;;;5130042;27;20065;-75
2024/01/23 13:18:17;;;;;;;7.75;1.80;;;;;;;;;;5129848;27;20409;-82
2024/01/23 13:20:45;;;;;;;4.65;1.73;;;;;;;;;;5129866;27;20130;-82
2024/01/23 13:23:12;;;;;;;3.55;1.48;;;;;;;;;;5129085;27;20043;-83
2024/01/23 13:25:46;;;;;;;5.40;1.67;;;;;;;;;;5129727;27;20078;-82
2024/01/23 13:28:18;;;;;;;5.00;1.60;;;;;;;;;;5128234;27;20057;-81
2024/01/23 13:30:47;;;;;;;6.53;1.70;;;;;;;;;;5130008;27;20049;-84
2024/01/23 13:33:15;;;;;;;4.43;1.60;;;;;;;;;;5129851;27;20043;-83
2024/01/23 13:35:43;;;;;;;5.63;1.90;;;;;;;;;;5129047;27;20131;-81
2024/01/23 13:38:10;;;;;;;3.05;1.40;;;;;;;;;;5129701;27;20065;-84
2024/01/23 13:40:37;;;;;;;2.88;1.40;;;;;;;;;;5128211;27;20428;-83
2024/01/23 13:43:04;;;;;;;4.55;1.33;;;;;;;;;;5129386;27;20051;-75
2024/01/23 13:45:30;;;;;;;4.03;1.23;;;;;;;;;;5129777;27;20050;-75
2024/01/23 13:47:57;;;;;;;3.75;1.23;;;;;;;;;;5124045;27;20040;-70
2024/01/23 13:50:24;;;;;;;4.35;1.40;;;;;;;;;;5091098;28;20456;-76
2024/01/23 13:52:52;;;;;;;4.70;1.63;;;;;;;;;;5090958;28;20154;-72
2024/01/23 13:55:20;;;;;;;4.60;1.30;;;;;;;;;;5128035;28;20055;-74
2024/01/23 13:57:47;;;;;;;5.47;1.55;;;;;;;;;;5091921;28;20055;-73
2024/01/23 14:00:15;;;;;;;8.43;2.30;;;;;;;;;;5108812;28;20040;-74
2024/01/23 14:02:43;;;;;;;6.20;2.03;;;;;;;;;;5108661;28;20054;-73
2024/01/23 14:05:11;;;;;;;8.82;2.03;;;;;;;;;;5090086;28;20047;-74
2024/01/23 14:07:40;;;;;;;8.45;2.20;;;;;;;;;;5090892;28;20044;-73
2024/01/23 14:10:09;;;;;;;4.75;1.85;;;;;;;;;;5108059;28;20130;-74
2024/01/23 14:12:36;;;;;;;4.65;1.65;;;;;;;;;;5108618;28;20075;-74
2024/01/23 14:15:04;;;;;;;5.97;2.47;;;;;;;;;;5110796;28;20046;-74
2024/01/23 14:17:31;;;;;;;7.57;2.28;;;;;;;;;;5114150;27;20048;-76
2024/01/23 14:19:58;;;;;;;7.68;2.40;;;;;;;;;;5133384;27;20050;-73
2024/01/23 14:22:25;;;;;;;8.45;2.65;;;;;;;;;;5132332;27;20055;-73
2024/01/23 14:24:52;;;;;;;7.43;2.30;;;;;;;;;;5132999;27;20049;-73
2024/01/23 14:27:19;;;;;;;5.38;2.30;;;;;;;;;;5115092;27;20054;-74
2024/01/23 14:29:46;;;;;;;7.38;2.15;;;;;;;;;;5133376;27;20069;-74
2024/01/23 14:32:14;;;;;;;7.05;2.05;;;;;;;;;;5132763;27;20054;-73
2024/01/23 14:34:41;;;;;;;6.50;2.40;;;;;;;;;;5133275;27;20047;-75
2024/01/23 14:37:08;;;;;;;6.38;2.40;;;;;;;;;;5132816;27;20047;-73
2024/01/23 14:39:35;;;;;;;5.25;1.83;;;;;;;;;;5132239;27;20048;-74
2024/01/23 14:42:02;;;;;;;6.82;1.90;;;;;;;;;;5132660;27;20039;-76
2024/01/23 14:44:30;;;;;;;5.82;2.20;;;;;;;;;;5132931;27;20047;-77
2024/01/23 14:46:56;;;;;;;5.68;2.25;;;;;;;;;;5132903;27;20089;-77